sensor_id;sensor_type;location;lat;lon;timestamp;temperature;humidity
60455;DHT22;54989;53.398;6.564;2022-09-21T00:01:29;20.50;61.70
60455;DHT22;54989;53.398;6.564;2022-09-21T00:03:59;20.60;61.80
60455;DHT22;54989;53.398;6.564;2022-09-21T00:06:31;20.50;61.80
60455;DHT22;54989;53.398;6.564;2022-09-21T00:08:59;20.60;61.80
60455;DHT22;54989;53.398;6.564;2022-09-21T00:11:29;20.50;61.80
60455;DHT22;54989;53.398;6.564;2022-09-21T00:13:59;20.50;61.80
60455;DHT22;54989;53.398;6.564;2022-09-21T00:16:29;20.50;61.80
60455;DHT22;54989;53.398;6.564;2022-09-21T00:18:59;20.50;61.90
60455;DHT22;54989;53.398;6.564;2022-09-21T00:21:26;20.50;61.90
60455;DHT22;54989;53.398;6.564;2022-09-21T00:23:54;20.50;61.90
60455;DHT22;54989;53.398;6.564;2022-09-21T00:26:25;20.50;61.90
60455;DHT22;54989;53.398;6.564;2022-09-21T00:28:57;20.40;61.80
60455;DHT22;54989;53.398;6.564;2022-09-21T00:31:27;20.40;61.80
60455;DHT22;54989;53.398;6.564;2022-09-21T00:33:56;20.40;61.80
60455;DHT22;54989;53.398;6.564;2022-09-21T00:36:26;20.40;61.80
60455;DHT22;54989;53.398;6.564;2022-09-21T00:38:58;20.40;61.90
60455;DHT22;54989;53.398;6.564;2022-09-21T00:41:30;20.40;61.90
60455;DHT22;54989;53.398;6.564;2022-09-21T00:44:28;20.40;61.90
60455;DHT22;54989;53.398;6.564;2022-09-21T00:47:33;20.40;62.10
60455;DHT22;54989;53.398;6.564;2022-09-21T00:50:05;20.30;61.90
60455;DHT22;54989;53.398;6.564;2022-09-21T00:52:43;20.30;62.00
60455;DHT22;54989;53.398;6.564;2022-09-21T00:55:39;20.30;62.00
60455;DHT22;54989;53.398;6.564;2022-09-21T00:58:13;20.30;62.00
60455;DHT22;54989;53.398;6.564;2022-09-21T01:00:41;20.30;62.00
60455;DHT22;54989;53.398;6.564;2022-09-21T01:03:11;20.30;62.00
60455;DHT22;54989;53.398;6.564;2022-09-21T01:05:40;20.20;62.00
60455;DHT22;54989;53.398;6.564;2022-09-21T01:08:09;20.20;62.00
60455;DHT22;54989;53.398;6.564;2022-09-21T01:16:09;20.20;62.00
60455;DHT22;54989;53.398;6.564;2022-09-21T01:19:08;20.20;62.00
60455;DHT22;54989;53.398;6.564;2022-09-21T01:21:55;20.20;62.10
60455;DHT22;54989;53.398;6.564;2022-09-21T01:30:12;20.20;62.20
60455;DHT22;54989;53.398;6.564;2022-09-21T01:32:58;20.20;62.20
60455;DHT22;54989;53.398;6.564;2022-09-21T01:35:36;20.20;62.30
60455;DHT22;54989;53.398;6.564;2022-09-21T01:38:27;20.10;62.20
60455;DHT22;54989;53.398;6.564;2022-09-21T01:40:59;20.10;62.10
60455;DHT22;54989;53.398;6.564;2022-09-21T01:43:39;20.10;62.20
60455;DHT22;54989;53.398;6.564;2022-09-21T01:46:12;20.10;62.20
60455;DHT22;54989;53.398;6.564;2022-09-21T01:48:45;20.10;62.20
60455;DHT22;54989;53.398;6.564;2022-09-21T01:51:16;20.10;62.20
60455;DHT22;54989;53.398;6.564;2022-09-21T01:53:55;20.10;62.20
60455;DHT22;54989;53.398;6.564;2022-09-21T01:56:40;20.10;62.10
60455;DHT22;54989;53.398;6.564;2022-09-21T01:59:17;20.10;62.10
60455;DHT22;54989;53.398;6.564;2022-09-21T02:01:59;20.10;62.20
60455;DHT22;54989;53.398;6.564;2022-09-21T02:04:29;20.00;62.00
60455;DHT22;54989;53.398;6.564;2022-09-21T02:06:57;20.10;62.10
60455;DHT22;54989;53.398;6.564;2022-09-21T02:09:25;20.00;62.10
60455;DHT22;54989;53.398;6.564;2022-09-21T02:11:53;20.00;62.10
60455;DHT22;54989;53.398;6.564;2022-09-21T02:14:21;20.00;62.10
60455;DHT22;54989;53.398;6.564;2022-09-21T02:20:19;20.00;62.10
60455;DHT22;54989;53.398;6.564;2022-09-21T02:23:14;20.00;62.10
60455;DHT22;54989;53.398;6.564;2022-09-21T02:25:51;20.00;62.10
60455;DHT22;54989;53.398;6.564;2022-09-21T02:28:49;20.00;62.20
60455;DHT22;54989;53.398;6.564;2022-09-21T02:31:44;19.90;62.10
60455;DHT22;54989;53.398;6.564;2022-09-21T02:36:52;19.90;62.10
60455;DHT22;54989;53.398;6.564;2022-09-21T02:39:42;19.90;62.10
60455;DHT22;54989;53.398;6.564;2022-09-21T02:42:24;19.90;62.10
60455;DHT22;54989;53.398;6.564;2022-09-21T02:47:45;19.90;62.20
60455;DHT22;54989;53.398;6.564;2022-09-21T02:50:32;19.80;62.10
60455;DHT22;54989;53.398;6.564;2022-09-21T02:53:04;19.80;62.10
60455;DHT22;54989;53.398;6.564;2022-09-21T02:55:33;19.80;62.10
60455;DHT22;54989;53.398;6.564;2022-09-21T02:58:03;19.80;62.10
60455;DHT22;54989;53.398;6.564;2022-09-21T03:00:35;19.80;62.10
60455;DHT22;54989;53.398;6.564;2022-09-21T03:03:20;19.80;62.10
60455;DHT22;54989;53.398;6.564;2022-09-21T03:05:50;19.80;62.10
60455;DHT22;54989;53.398;6.564;2022-09-21T03:08:18;19.80;62.20
60455;DHT22;54989;53.398;6.564;2022-09-21T03:10:46;19.80;62.20
60455;DHT22;54989;53.398;6.564;2022-09-21T03:13:13;19.80;62.20
60455;DHT22;54989;53.398;6.564;2022-09-21T03:15:41;19.80;62.20
60455;DHT22;54989;53.398;6.564;2022-09-21T03:18:09;19.70;62.10
60455;DHT22;54989;53.398;6.564;2022-09-21T03:20:43;19.80;62.20
60455;DHT22;54989;53.398;6.564;2022-09-21T03:23:12;19.70;62.10
60455;DHT22;54989;53.398;6.564;2022-09-21T03:25:43;19.70;62.10
60455;DHT22;54989;53.398;6.564;2022-09-21T03:28:13;19.70;62.10
60455;DHT22;54989;53.398;6.564;2022-09-21T03:30:42;19.70;62.10
60455;DHT22;54989;53.398;6.564;2022-09-21T03:33:09;19.70;62.10
60455;DHT22;54989;53.398;6.564;2022-09-21T03:35:39;19.70;62.10
60455;DHT22;54989;53.398;6.564;2022-09-21T03:38:07;19.70;62.20
60455;DHT22;54989;53.398;6.564;2022-09-21T03:40:34;19.70;62.10
60455;DHT22;54989;53.398;6.564;2022-09-21T03:43:02;19.70;62.10
60455;DHT22;54989;53.398;6.564;2022-09-21T03:45:30;19.70;62.10
60455;DHT22;54989;53.398;6.564;2022-09-21T03:47:58;19.60;62.10
60455;DHT22;54989;53.398;6.564;2022-09-21T03:50:27;19.70;62.80
60455;DHT22;54989;53.398;6.564;2022-09-21T03:52:55;19.60;62.10
60455;DHT22;54989;53.398;6.564;2022-09-21T03:55:25;19.70;62.20
60455;DHT22;54989;53.398;6.564;2022-09-21T03:57:53;19.70;62.20
60455;DHT22;54989;53.398;6.564;2022-09-21T04:00:21;19.60;62.10
60455;DHT22;54989;53.398;6.564;2022-09-21T04:02:48;19.60;62.20
60455;DHT22;54989;53.398;6.564;2022-09-21T04:05:16;19.60;62.20
60455;DHT22;54989;53.398;6.564;2022-09-21T04:07:44;19.60;62.20
60455;DHT22;54989;53.398;6.564;2022-09-21T04:10:14;19.60;62.20
60455;DHT22;54989;53.398;6.564;2022-09-21T04:12:43;19.60;62.20
60455;DHT22;54989;53.398;6.564;2022-09-21T04:15:13;19.60;62.10
60455;DHT22;54989;53.398;6.564;2022-09-21T04:17:41;19.60;62.20
60455;DHT22;54989;53.398;6.564;2022-09-21T04:20:08;19.60;62.20
60455;DHT22;54989;53.398;6.564;2022-09-21T04:22:36;19.50;62.10
60455;DHT22;54989;53.398;6.564;2022-09-21T04:25:10;19.60;62.10
60455;DHT22;54989;53.398;6.564;2022-09-21T04:27:39;19.50;62.10
60455;DHT22;54989;53.398;6.564;2022-09-21T04:30:07;19.50;62.10
60455;DHT22;54989;53.398;6.564;2022-09-21T04:32:34;19.50;62.20
60455;DHT22;54989;53.398;6.564;2022-09-21T04:35:02;19.50;62.20
60455;DHT22;54989;53.398;6.564;2022-09-21T04:37:30;19.50;62.80
60455;DHT22;54989;53.398;6.564;2022-09-21T04:39:57;19.50;62.20
60455;DHT22;54989;53.398;6.564;2022-09-21T04:42:25;19.40;62.10
60455;DHT22;54989;53.398;6.564;2022-09-21T04:44:54;19.50;62.20
60455;DHT22;54989;53.398;6.564;2022-09-21T04:47:22;19.50;62.20
60455;DHT22;54989;53.398;6.564;2022-09-21T04:49:51;19.50;62.20
60455;DHT22;54989;53.398;6.564;2022-09-21T04:52:19;19.40;62.20
60455;DHT22;54989;53.398;6.564;2022-09-21T04:54:47;19.50;62.20
60455;DHT22;54989;53.398;6.564;2022-09-21T04:57:14;19.40;62.10
60455;DHT22;54989;53.398;6.564;2022-09-21T04:59:42;19.40;62.20
60455;DHT22;54989;53.398;6.564;2022-09-21T05:02:09;19.40;62.20
60455;DHT22;54989;53.398;6.564;2022-09-21T05:04:37;19.40;62.20
60455;DHT22;54989;53.398;6.564;2022-09-21T05:07:04;19.40;62.20
60455;DHT22;54989;53.398;6.564;2022-09-21T05:09:32;19.40;62.20
60455;DHT22;54989;53.398;6.564;2022-09-21T05:12:18;19.40;62.80
60455;DHT22;54989;53.398;6.564;2022-09-21T05:14:45;19.40;62.10
60455;DHT22;54989;53.398;6.564;2022-09-21T05:17:13;19.40;62.20
60455;DHT22;54989;53.398;6.564;2022-09-21T05:19:40;19.40;62.20
60455;DHT22;54989;53.398;6.564;2022-09-21T05:22:08;19.40;62.20
60455;DHT22;54989;53.398;6.564;2022-09-21T05:24:35;19.40;62.20
60455;DHT22;54989;53.398;6.564;2022-09-21T05:27:03;19.40;62.10
60455;DHT22;54989;53.398;6.564;2022-09-21T05:29:31;19.40;62.20
60455;DHT22;54989;53.398;6.564;2022-09-21T05:32:12;19.40;62.10
60455;DHT22;54989;53.398;6.564;2022-09-21T05:34:49;19.40;62.60
60455;DHT22;54989;53.398;6.564;2022-09-21T05:40:28;19.40;62.40
60455;DHT22;54989;53.398;6.564;2022-09-21T05:42:56;19.40;62.50
60455;DHT22;54989;53.398;6.564;2022-09-21T05:45:24;19.30;62.40
60455;DHT22;54989;53.398;6.564;2022-09-21T05:51:02;19.30;62.40
60455;DHT22;54989;53.398;6.564;2022-09-21T05:53:44;19.30;62.50
60455;DHT22;54989;53.398;6.564;2022-09-21T05:59:02;19.20;62.40
60455;DHT22;54989;53.398;6.564;2022-09-21T06:04:28;19.20;62.50
60455;DHT22;54989;53.398;6.564;2022-09-21T06:06:55;19.20;62.60
60455;DHT22;54989;53.398;6.564;2022-09-21T06:09:23;19.30;62.90
60455;DHT22;54989;53.398;6.564;2022-09-21T06:11:52;19.20;62.50
60455;DHT22;54989;53.398;6.564;2022-09-21T06:14:20;19.20;62.50
60455;DHT22;54989;53.398;6.564;2022-09-21T06:16:52;19.20;62.40
60455;DHT22;54989;53.398;6.564;2022-09-21T06:19:19;19.20;62.50
60455;DHT22;54989;53.398;6.564;2022-09-21T06:21:47;19.30;62.40
60455;DHT22;54989;53.398;6.564;2022-09-21T06:24:14;19.20;62.30
60455;DHT22;54989;53.398;6.564;2022-09-21T06:26:42;19.20;62.40
60455;DHT22;54989;53.398;6.564;2022-09-21T06:29:09;19.30;62.50
60455;DHT22;54989;53.398;6.564;2022-09-21T06:31:37;19.20;62.40
60455;DHT22;54989;53.398;6.564;2022-09-21T06:34:04;19.20;62.30
60455;DHT22;54989;53.398;6.564;2022-09-21T06:36:32;19.20;62.40
60455;DHT22;54989;53.398;6.564;2022-09-21T06:38:59;19.20;62.40
60455;DHT22;54989;53.398;6.564;2022-09-21T06:41:27;19.20;62.40
60455;DHT22;54989;53.398;6.564;2022-09-21T06:43:54;19.20;63.10
60455;DHT22;54989;53.398;6.564;2022-09-21T06:46:23;19.20;62.40
60455;DHT22;54989;53.398;6.564;2022-09-21T06:48:50;19.20;62.50
60455;DHT22;54989;53.398;6.564;2022-09-21T06:51:18;19.20;62.40
60455;DHT22;54989;53.398;6.564;2022-09-21T06:53:47;19.20;62.60
60455;DHT22;54989;53.398;6.564;2022-09-21T06:56:15;19.20;62.60
60455;DHT22;54989;53.398;6.564;2022-09-21T06:58:42;19.20;62.60
60455;DHT22;54989;53.398;6.564;2022-09-21T07:01:11;19.20;62.60
60455;DHT22;54989;53.398;6.564;2022-09-21T07:03:40;19.20;62.50
60455;DHT22;54989;53.398;6.564;2022-09-21T07:06:10;19.20;62.60
60455;DHT22;54989;53.398;6.564;2022-09-21T07:08:41;19.20;62.60
60455;DHT22;54989;53.398;6.564;2022-09-21T07:11:30;19.20;62.60
60455;DHT22;54989;53.398;6.564;2022-09-21T07:13:57;19.20;62.60
60455;DHT22;54989;53.398;6.564;2022-09-21T07:16:25;19.20;62.60
60455;DHT22;54989;53.398;6.564;2022-09-21T07:18:54;19.20;62.60
60455;DHT22;54989;53.398;6.564;2022-09-21T07:21:22;19.20;62.60
60455;DHT22;54989;53.398;6.564;2022-09-21T07:23:50;19.20;62.60
60455;DHT22;54989;53.398;6.564;2022-09-21T07:26:18;19.10;62.50
60455;DHT22;54989;53.398;6.564;2022-09-21T07:28:45;19.20;62.60
60455;DHT22;54989;53.398;6.564;2022-09-21T07:31:15;19.10;62.50
60455;DHT22;54989;53.398;6.564;2022-09-21T07:33:43;19.10;62.60
60455;DHT22;54989;53.398;6.564;2022-09-21T07:36:13;19.10;62.60
60455;DHT22;54989;53.398;6.564;2022-09-21T07:38:42;19.10;62.60
60455;DHT22;54989;53.398;6.564;2022-09-21T07:41:12;19.10;62.60
60455;DHT22;54989;53.398;6.564;2022-09-21T07:43:40;19.10;62.70
60455;DHT22;54989;53.398;6.564;2022-09-21T07:46:10;19.10;62.80
60455;DHT22;54989;53.398;6.564;2022-09-21T07:48:38;19.20;62.80
60455;DHT22;54989;53.398;6.564;2022-09-21T07:51:08;19.10;62.70
60455;DHT22;54989;53.398;6.564;2022-09-21T07:53:38;19.10;62.70
60455;DHT22;54989;53.398;6.564;2022-09-21T07:56:16;19.20;62.80
60455;DHT22;54989;53.398;6.564;2022-09-21T07:58:44;19.20;62.90
60455;DHT22;54989;53.398;6.564;2022-09-21T08:01:34;19.20;62.80
60455;DHT22;54989;53.398;6.564;2022-09-21T08:04:08;19.40;62.80
60455;DHT22;54989;53.398;6.564;2022-09-21T08:06:37;19.50;62.80
60455;DHT22;54989;53.398;6.564;2022-09-21T08:09:06;19.60;62.70
60455;DHT22;54989;53.398;6.564;2022-09-21T08:11:34;19.70;62.50
60455;DHT22;54989;53.398;6.564;2022-09-21T08:14:03;19.80;62.40
60455;DHT22;54989;53.398;6.564;2022-09-21T08:16:31;19.90;62.10
60455;DHT22;54989;53.398;6.564;2022-09-21T08:19:00;20.10;62.10
60455;DHT22;54989;53.398;6.564;2022-09-21T08:21:29;20.10;61.80
60455;DHT22;54989;53.398;6.564;2022-09-21T08:23:56;20.30;61.70
60455;DHT22;54989;53.398;6.564;2022-09-21T08:26:24;20.40;61.50
60455;DHT22;54989;53.398;6.564;2022-09-21T08:28:52;20.50;61.40
60455;DHT22;54989;53.398;6.564;2022-09-21T08:31:22;20.60;61.30
60455;DHT22;54989;53.398;6.564;2022-09-21T08:33:51;20.70;61.10
60455;DHT22;54989;53.398;6.564;2022-09-21T08:36:18;20.80;61.20
60455;DHT22;54989;53.398;6.564;2022-09-21T08:38:46;20.90;61.20
60455;DHT22;54989;53.398;6.564;2022-09-21T08:41:16;21.00;60.90
60455;DHT22;54989;53.398;6.564;2022-09-21T08:43:50;21.20;61.00
60455;DHT22;54989;53.398;6.564;2022-09-21T08:46:21;21.30;60.50
60455;DHT22;54989;53.398;6.564;2022-09-21T08:51:25;21.40;60.10
60455;DHT22;54989;53.398;6.564;2022-09-21T08:54:02;21.50;60.00
60455;DHT22;54989;53.398;6.564;2022-09-21T08:56:32;21.60;60.10
60455;DHT22;54989;53.398;6.564;2022-09-21T08:59:20;21.70;59.80
60455;DHT22;54989;53.398;6.564;2022-09-21T09:01:56;21.80;59.70
60455;DHT22;54989;53.398;6.564;2022-09-21T09:12:59;22.10;59.10
60455;DHT22;54989;53.398;6.564;2022-09-21T09:21:05;22.20;59.00
60455;DHT22;54989;53.398;6.564;2022-09-21T09:23:44;22.20;58.90
60455;DHT22;54989;53.398;6.564;2022-09-21T09:26:27;22.20;58.80
60455;DHT22;54989;53.398;6.564;2022-09-21T09:29:10;22.20;58.80
60455;DHT22;54989;53.398;6.564;2022-09-21T09:31:41;22.10;58.80
60455;DHT22;54989;53.398;6.564;2022-09-21T09:34:19;22.10;58.90
60455;DHT22;54989;53.398;6.564;2022-09-21T09:36:59;22.10;59.00
60455;DHT22;54989;53.398;6.564;2022-09-21T09:39:29;22.10;59.10
60455;DHT22;54989;53.398;6.564;2022-09-21T09:50:17;21.90;59.40
60455;DHT22;54989;53.398;6.564;2022-09-21T09:52:48;21.90;59.40
60455;DHT22;54989;53.398;6.564;2022-09-21T09:55:25;21.90;59.40
60455;DHT22;54989;53.398;6.564;2022-09-21T09:57:54;21.80;59.50
60455;DHT22;54989;53.398;6.564;2022-09-21T10:00:22;21.80;59.70
60455;DHT22;54989;53.398;6.564;2022-09-21T10:02:55;21.80;59.80
60455;DHT22;54989;53.398;6.564;2022-09-21T10:05:33;21.80;59.90
60455;DHT22;54989;53.398;6.564;2022-09-21T10:08:02;21.80;59.90
60455;DHT22;54989;53.398;6.564;2022-09-21T10:10:35;21.80;60.00
60455;DHT22;54989;53.398;6.564;2022-09-21T10:16:43;21.80;60.00
60455;DHT22;54989;53.398;6.564;2022-09-21T10:18:54;21.70;60.10
60455;DHT22;54989;53.398;6.564;2022-09-21T10:21:26;21.70;60.20
60455;DHT22;54989;53.398;6.564;2022-09-21T10:24:01;21.70;60.20
60455;DHT22;54989;53.398;6.564;2022-09-21T10:26:43;21.70;60.30
60455;DHT22;54989;53.398;6.564;2022-09-21T10:29:28;21.70;60.40
60455;DHT22;54989;53.398;6.564;2022-09-21T10:32:02;21.70;60.30
60455;DHT22;54989;53.398;6.564;2022-09-21T10:34:31;21.60;60.20
60455;DHT22;54989;53.398;6.564;2022-09-21T10:37:01;21.70;60.40
60455;DHT22;54989;53.398;6.564;2022-09-21T10:39:33;21.60;60.40
60455;DHT22;54989;53.398;6.564;2022-09-21T10:42:12;21.60;60.50
60455;DHT22;54989;53.398;6.564;2022-09-21T10:45:30;21.60;60.60
60455;DHT22;54989;53.398;6.564;2022-09-21T10:47:41;21.60;60.60
60455;DHT22;54989;53.398;6.564;2022-09-21T10:50:33;21.60;60.60
60455;DHT22;54989;53.398;6.564;2022-09-21T10:53:19;21.50;60.60
60455;DHT22;54989;53.398;6.564;2022-09-21T10:56:18;21.50;60.60
60455;DHT22;54989;53.398;6.564;2022-09-21T10:59:21;21.50;60.60
60455;DHT22;54989;53.398;6.564;2022-09-21T11:01:51;21.60;60.80
60455;DHT22;54989;53.398;6.564;2022-09-21T11:04:40;21.60;60.80
60455;DHT22;54989;53.398;6.564;2022-09-21T11:07:24;21.60;60.80
60455;DHT22;54989;53.398;6.564;2022-09-21T11:10:02;21.50;60.80
60455;DHT22;54989;53.398;6.564;2022-09-21T11:18:15;21.50;60.90
60455;DHT22;54989;53.398;6.564;2022-09-21T11:21:18;21.60;60.90
60455;DHT22;54989;53.398;6.564;2022-09-21T11:26:51;21.60;60.80
60455;DHT22;54989;53.398;6.564;2022-09-21T11:29:30;21.60;60.90
60455;DHT22;54989;53.398;6.564;2022-09-21T11:41:03;21.60;60.80
60455;DHT22;54989;53.398;6.564;2022-09-21T11:49:40;21.60;60.90
60455;DHT22;54989;53.398;6.564;2022-09-21T11:52:17;21.50;60.90
60455;DHT22;54989;53.398;6.564;2022-09-21T11:55:03;21.50;60.90
60455;DHT22;54989;53.398;6.564;2022-09-21T12:00:17;21.60;61.10
60455;DHT22;54989;53.398;6.564;2022-09-21T12:11:16;21.60;60.90
60455;DHT22;54989;53.398;6.564;2022-09-21T12:18:59;21.70;61.00
60455;DHT22;54989;53.398;6.564;2022-09-21T12:21:37;21.70;61.00
60455;DHT22;54989;53.398;6.564;2022-09-21T12:24:14;21.70;60.90
60455;DHT22;54989;53.398;6.564;2022-09-21T12:26:48;21.80;61.00
60455;DHT22;54989;53.398;6.564;2022-09-21T12:32:11;21.80;60.90
60455;DHT22;54989;53.398;6.564;2022-09-21T12:34:45;21.80;60.90
60455;DHT22;54989;53.398;6.564;2022-09-21T12:37:22;21.80;61.00
60455;DHT22;54989;53.398;6.564;2022-09-21T12:40:28;21.70;60.90
60455;DHT22;54989;53.398;6.564;2022-09-21T12:46:01;21.70;61.00
60455;DHT22;54989;53.398;6.564;2022-09-21T12:48:35;21.70;61.10
60455;DHT22;54989;53.398;6.564;2022-09-21T12:51:52;21.70;61.20
60455;DHT22;54989;53.398;6.564;2022-09-21T12:53:56;21.60;61.10
60455;DHT22;54989;53.398;6.564;2022-09-21T12:56:31;21.60;61.10
60455;DHT22;54989;53.398;6.564;2022-09-21T13:01:46;21.60;61.10
60455;DHT22;54989;53.398;6.564;2022-09-21T13:04:47;21.60;61.10
60455;DHT22;54989;53.398;6.564;2022-09-21T13:10:06;21.60;61.20
60455;DHT22;54989;53.398;6.564;2022-09-21T13:12:40;21.60;61.40
60455;DHT22;54989;53.398;6.564;2022-09-21T13:18:01;21.70;61.30
60455;DHT22;54989;53.398;6.564;2022-09-21T13:20:39;21.70;61.30
60455;DHT22;54989;53.398;6.564;2022-09-21T13:23:37;21.70;61.30
60455;DHT22;54989;53.398;6.564;2022-09-21T13:26:11;21.80;61.20
60455;DHT22;54989;53.398;6.564;2022-09-21T13:32:00;21.70;61.20
60455;DHT22;54989;53.398;6.564;2022-09-21T13:34:33;21.70;61.30
60455;DHT22;54989;53.398;6.564;2022-09-21T13:37:25;21.70;61.30
60455;DHT22;54989;53.398;6.564;2022-09-21T13:47:52;21.70;61.30
60455;DHT22;54989;53.398;6.564;2022-09-21T13:53:04;21.70;61.40
60455;DHT22;54989;53.398;6.564;2022-09-21T13:55:34;21.70;61.40
60455;DHT22;54989;53.398;6.564;2022-09-21T13:58:19;21.70;61.50
60455;DHT22;54989;53.398;6.564;2022-09-21T14:01:00;21.70;61.50
60455;DHT22;54989;53.398;6.564;2022-09-21T14:04:19;21.70;61.40
60455;DHT22;54989;53.398;6.564;2022-09-21T14:06:34;21.70;61.40
60455;DHT22;54989;53.398;6.564;2022-09-21T14:09:23;21.70;61.50
60455;DHT22;54989;53.398;6.564;2022-09-21T14:11:58;21.70;61.50
60455;DHT22;54989;53.398;6.564;2022-09-21T14:14:31;21.70;61.60
60455;DHT22;54989;53.398;6.564;2022-09-21T14:17:00;21.70;61.60
60455;DHT22;54989;53.398;6.564;2022-09-21T14:27:35;21.80;61.70
60455;DHT22;54989;53.398;6.564;2022-09-21T14:30:18;21.90;61.70
60455;DHT22;54989;53.398;6.564;2022-09-21T14:35:31;21.90;61.70
60455;DHT22;54989;53.398;6.564;2022-09-21T14:38:02;21.90;61.60
60455;DHT22;54989;53.398;6.564;2022-09-21T14:40:37;21.90;61.60
60455;DHT22;54989;53.398;6.564;2022-09-21T14:43:13;21.90;61.50
60455;DHT22;54989;53.398;6.564;2022-09-21T14:54:20;22.00;61.50
60455;DHT22;54989;53.398;6.564;2022-09-21T14:57:05;22.00;61.60
60455;DHT22;54989;53.398;6.564;2022-09-21T15:00:35;22.00;61.50
60455;DHT22;54989;53.398;6.564;2022-09-21T15:03:04;22.00;61.50
60455;DHT22;54989;53.398;6.564;2022-09-21T15:05:42;22.10;61.60
60455;DHT22;54989;53.398;6.564;2022-09-21T15:08:21;22.10;61.60
60455;DHT22;54989;53.398;6.564;2022-09-21T15:16:37;22.10;61.50
60455;DHT22;54989;53.398;6.564;2022-09-21T15:19:19;22.10;61.50
60455;DHT22;54989;53.398;6.564;2022-09-21T15:24:30;22.10;61.60
60455;DHT22;54989;53.398;6.564;2022-09-21T15:27:06;22.10;61.80
60455;DHT22;54989;53.398;6.564;2022-09-21T15:29:36;22.10;62.20
60455;DHT22;54989;53.398;6.564;2022-09-21T15:32:05;22.10;62.20
60455;DHT22;54989;53.398;6.564;2022-09-21T15:34:33;22.20;61.80
60455;DHT22;54989;53.398;6.564;2022-09-21T15:37:14;22.20;61.80
60455;DHT22;54989;53.398;6.564;2022-09-21T15:39:42;22.30;61.80
60455;DHT22;54989;53.398;6.564;2022-09-21T15:42:17;22.30;61.80
60455;DHT22;54989;53.398;6.564;2022-09-21T15:44:47;22.30;61.40
60455;DHT22;54989;53.398;6.564;2022-09-21T15:47:20;22.40;61.60
60455;DHT22;54989;53.398;6.564;2022-09-21T15:49:48;22.50;61.40
60455;DHT22;54989;53.398;6.564;2022-09-21T15:52:31;22.50;61.30
60455;DHT22;54989;53.398;6.564;2022-09-21T15:55:09;22.70;62.00
60455;DHT22;54989;53.398;6.564;2022-09-21T15:57:42;22.80;61.30
60455;DHT22;54989;53.398;6.564;2022-09-21T16:02:50;23.00;60.80
60455;DHT22;54989;53.398;6.564;2022-09-21T16:05:23;23.10;60.60
60455;DHT22;54989;53.398;6.564;2022-09-21T16:08:50;23.20;60.40
60455;DHT22;54989;53.398;6.564;2022-09-21T16:10:52;23.30;60.20
60455;DHT22;54989;53.398;6.564;2022-09-21T16:13:31;23.30;60.10
60455;DHT22;54989;53.398;6.564;2022-09-21T16:16:17;23.50;59.90
60455;DHT22;54989;53.398;6.564;2022-09-21T16:18:48;23.50;59.80
60455;DHT22;54989;53.398;6.564;2022-09-21T16:21:31;23.50;59.60
60455;DHT22;54989;53.398;6.564;2022-09-21T16:24:20;23.60;59.70
60455;DHT22;54989;53.398;6.564;2022-09-21T16:27:00;23.60;59.50
60455;DHT22;54989;53.398;6.564;2022-09-21T16:29:43;23.60;59.50
60455;DHT22;54989;53.398;6.564;2022-09-21T16:32:18;23.60;59.60
60455;DHT22;54989;53.398;6.564;2022-09-21T16:34:47;23.60;59.60
60455;DHT22;54989;53.398;6.564;2022-09-21T16:39:56;23.60;59.50
60455;DHT22;54989;53.398;6.564;2022-09-21T16:42:27;23.60;59.60
60455;DHT22;54989;53.398;6.564;2022-09-21T16:44:59;23.60;59.60
60455;DHT22;54989;53.398;6.564;2022-09-21T16:47:27;23.50;59.80
60455;DHT22;54989;53.398;6.564;2022-09-21T16:49:57;23.50;59.60
60455;DHT22;54989;53.398;6.564;2022-09-21T16:52:28;23.50;59.70
60455;DHT22;54989;53.398;6.564;2022-09-21T16:54:56;23.40;59.70
60455;DHT22;54989;53.398;6.564;2022-09-21T16:57:25;23.40;59.60
60455;DHT22;54989;53.398;6.564;2022-09-21T16:59:53;23.40;59.70
60455;DHT22;54989;53.398;6.564;2022-09-21T17:02:20;23.30;59.80
60455;DHT22;54989;53.398;6.564;2022-09-21T17:04:48;23.30;59.60
60455;DHT22;54989;53.398;6.564;2022-09-21T17:07:16;23.30;59.80
60455;DHT22;54989;53.398;6.564;2022-09-21T17:09:47;23.20;59.80
60455;DHT22;54989;53.398;6.564;2022-09-21T17:12:16;23.20;60.00
60455;DHT22;54989;53.398;6.564;2022-09-21T17:14:44;23.10;59.80
60455;DHT22;54989;53.398;6.564;2022-09-21T17:17:22;23.10;60.00
60455;DHT22;54989;53.398;6.564;2022-09-21T17:19:52;23.10;60.00
60455;DHT22;54989;53.398;6.564;2022-09-21T17:22:21;23.10;60.10
60455;DHT22;54989;53.398;6.564;2022-09-21T17:24:51;23.00;60.10
60455;DHT22;54989;53.398;6.564;2022-09-21T17:27:23;23.00;60.20
60455;DHT22;54989;53.398;6.564;2022-09-21T17:29:53;22.90;60.20
60455;DHT22;54989;53.398;6.564;2022-09-21T17:32:24;22.90;60.20
60455;DHT22;54989;53.398;6.564;2022-09-21T17:35:30;22.90;60.20
60455;DHT22;54989;53.398;6.564;2022-09-21T17:37:59;22.90;60.20
60455;DHT22;54989;53.398;6.564;2022-09-21T17:40:29;22.80;60.40
60455;DHT22;54989;53.398;6.564;2022-09-21T17:45:44;22.80;60.50
60455;DHT22;54989;53.398;6.564;2022-09-21T17:48:18;22.70;60.50
60455;DHT22;54989;53.398;6.564;2022-09-21T17:50:48;22.70;60.50
60455;DHT22;54989;53.398;6.564;2022-09-21T17:53:16;22.70;60.50
60455;DHT22;54989;53.398;6.564;2022-09-21T17:56:17;22.70;60.50
60455;DHT22;54989;53.398;6.564;2022-09-21T17:59:01;22.70;60.60
60455;DHT22;54989;53.398;6.564;2022-09-21T18:04:02;22.60;60.80
60455;DHT22;54989;53.398;6.564;2022-09-21T18:06:30;22.60;60.80
60455;DHT22;54989;53.398;6.564;2022-09-21T18:08:59;22.60;60.80
60455;DHT22;54989;53.398;6.564;2022-09-21T18:14:21;22.60;61.50
60455;DHT22;54989;53.398;6.564;2022-09-21T18:26:21;22.50;61.00
60455;DHT22;54989;53.398;6.564;2022-09-21T18:28:51;22.40;61.00
60455;DHT22;54989;53.398;6.564;2022-09-21T18:32:17;22.40;61.00
60455;DHT22;54989;53.398;6.564;2022-09-21T18:37:26;22.40;60.90
60455;DHT22;54989;53.398;6.564;2022-09-21T18:48:54;22.30;60.90
60455;DHT22;54989;53.398;6.564;2022-09-21T18:51:31;22.30;60.80
60455;DHT22;54989;53.398;6.564;2022-09-21T18:54:01;22.30;60.80
60455;DHT22;54989;53.398;6.564;2022-09-21T18:56:33;22.30;60.90
60455;DHT22;54989;53.398;6.564;2022-09-21T18:59:01;22.30;60.80
60455;DHT22;54989;53.398;6.564;2022-09-21T19:01:29;22.30;60.80
60455;DHT22;54989;53.398;6.564;2022-09-21T19:04:01;22.30;60.80
60455;DHT22;54989;53.398;6.564;2022-09-21T19:17:11;22.20;60.60
60455;DHT22;54989;53.398;6.564;2022-09-21T19:25:06;22.10;60.60
60455;DHT22;54989;53.398;6.564;2022-09-21T19:27:42;22.10;60.60
60455;DHT22;54989;53.398;6.564;2022-09-21T19:30:17;22.10;60.60
60455;DHT22;54989;53.398;6.564;2022-09-21T19:32:54;22.10;60.60
60455;DHT22;54989;53.398;6.564;2022-09-21T19:35:30;22.10;61.30
60455;DHT22;54989;53.398;6.564;2022-09-21T19:38:01;22.10;60.60